createdAt,value
2023-01-28T01:41:00.775Z,100.00
2023-01-28T01:43:53.135Z,100.00
2023-01-28T01:46:47.368Z,99.98
2023-01-28T01:49:19.545Z,99.99
2023-01-28T01:51:49.132Z,99.61
2023-01-28T01:54:16.613Z,99.28
2023-01-28T01:56:44.700Z,99.38
2023-01-28T01:59:12.392Z,98.85
2023-01-28T02:01:39.009Z,99.48
2023-01-28T02:04:34.510Z,99.58
2023-01-28T02:07:01.341Z,98.85
2023-01-28T02:09:29.879Z,98.42
2023-01-28T02:11:59.714Z,98.21
2023-01-28T02:14:31.505Z,98.38
2023-01-28T02:17:00.192Z,98.99
2023-01-28T02:19:30.641Z,98.56
2023-01-28T02:22:34.023Z,98.19
2023-01-28T02:25:26.788Z,98.33
2023-01-28T02:28:06.881Z,98.09
2023-01-28T02:30:36.832Z,97.81
2023-01-28T02:33:07.968Z,98.27
2023-01-28T02:35:37.724Z,97.70
2023-01-28T02:38:10.737Z,97.52
2023-01-28T02:41:00.744Z,97.43
2023-01-28T02:43:34.452Z,97.20
2023-01-28T02:46:32.132Z,96.87
2023-01-28T02:48:59.158Z,96.15
2023-01-28T02:51:47.890Z,96.41
2023-01-28T02:54:46.072Z,96.43
2023-01-28T02:57:34.378Z,96.36
2023-01-28T03:00:10.398Z,96.47
2023-01-28T03:02:54.058Z,96.97
2023-01-28T03:05:34.963Z,96.98
2023-01-28T03:08:23.768Z,97.65
2023-01-28T03:11:12.281Z,97.31
2023-01-28T03:13:57.534Z,97.07
2023-01-28T03:16:42.925Z,97.50
2023-01-28T03:19:29.418Z,97.27
2023-01-28T03:22:15.003Z,96.84
2023-01-28T03:25:06.720Z,97.60
2023-01-28T03:28:03.343Z,97.66
2023-01-28T03:31:06.751Z,97.60
2023-01-28T03:34:02.405Z,98.03
2023-01-28T03:36:48.081Z,98.27
2023-01-28T03:39:29.697Z,98.72
2023-01-28T03:42:02.020Z,98.51
2023-01-28T03:44:47.809Z,98.41
2023-01-28T03:47:14.934Z,98.64
2023-01-28T03:49:53.730Z,98.44
2023-01-28T03:52:31.472Z,98.99
2023-01-28T03:55:15.974Z,98.35
2023-01-28T03:57:44.301Z,98.59
2023-01-28T04:00:13.346Z,98.58
2023-01-28T04:02:43.204Z,98.63
2023-01-28T04:05:15.398Z,98.49
2023-01-28T04:07:46.099Z,98.34
2023-01-28T04:10:36.158Z,98.17
2023-01-28T04:13:13.560Z,98.29
2023-01-28T04:15:42.750Z,97.97
2023-01-28T04:18:10.379Z,97.73
2023-01-28T04:20:37.429Z,97.18
2023-01-28T04:23:04.555Z,96.96
2023-01-28T04:25:31.624Z,96.75
2023-01-28T04:27:58.518Z,96.55
2023-01-28T04:30:27.985Z,96.34
2023-01-28T04:33:24.408Z,96.35
2023-01-28T04:35:54.204Z,96.44
2023-01-28T04:38:29.201Z,96.21
2023-01-28T04:41:19.389Z,96.03
2023-01-28T04:43:48.644Z,95.15
2023-01-28T04:46:34.152Z,94.67
2023-01-28T04:49:14.426Z,94.45
2023-01-28T04:52:00.587Z,94.75
2023-01-28T04:54:33.308Z,95.05
2023-01-28T04:57:03.115Z,94.72
2023-01-28T04:59:31.064Z,94.57
2023-01-28T05:01:57.919Z,94.71
2023-01-28T05:04:24.637Z,94.46
2023-01-28T05:06:52.366Z,94.31
2023-01-28T05:09:23.607Z,94.45
2023-01-28T05:11:51.187Z,94.23
2023-01-28T05:14:18.299Z,93.68
2023-01-28T05:16:50.133Z,93.14
2023-01-28T05:19:17.706Z,92.88
2023-01-28T05:21:46.179Z,93.20
2023-01-28T05:24:36.906Z,92.52
2023-01-28T05:27:03.847Z,92.97
2023-01-28T05:29:30.834Z,92.60
2023-01-28T05:31:59.304Z,92.92
2023-01-28T05:34:26.032Z,92.08
2023-01-28T05:36:53.963Z,91.67
2023-01-28T05:39:39.262Z,91.75
2023-01-28T05:42:06.256Z,92.03
2023-01-28T05:44:35.850Z,92.09
2023-01-28T05:47:18.345Z,92.91
2023-01-28T05:49:51.276Z,92.54
2023-01-28T05:52:44.367Z,93.04
2023-01-28T05:55:21.210Z,92.52
2023-01-28T05:57:48.765Z,92.66
2023-01-28T06:00:18.082Z,92.18
2023-01-28T06:02:45.876Z,92.10
2023-01-28T06:05:15.132Z,92.19
2023-01-28T06:07:48.770Z,91.94
2023-01-28T06:10:19.286Z,91.96
2023-01-28T06:12:47.252Z,92.27
2023-01-28T06:15:33.676Z,92.36
2023-01-28T06:18:29.885Z,92.45
2023-01-28T06:20:56.633Z,92.35
2023-01-28T06:23:23.984Z,92.71
2023-01-28T06:25:56.714Z,92.78
2023-01-28T06:28:25.529Z,92.18
2023-01-28T06:30:52.767Z,92.59
2023-01-28T06:33:19.829Z,92.39
2023-01-28T06:35:48.759Z,92.85
2023-01-28T06:38:15.398Z,92.67
2023-01-28T06:40:42.865Z,92.75
2023-01-28T06:43:13.263Z,92.31
2023-01-28T06:45:39.966Z,91.96
2023-01-28T06:48:08.780Z,91.46
2023-01-28T06:50:36.473Z,91.86
2023-01-28T06:53:03.135Z,91.87
2023-01-28T06:55:29.712Z,91.90
2023-01-28T06:57:56.514Z,91.57
2023-01-28T07:00:23.090Z,91.52
2023-01-28T07:02:49.755Z,90.98
2023-01-28T07:05:16.573Z,91.38
2023-01-28T07:07:46.010Z,91.07
2023-01-28T07:10:12.914Z,90.79
2023-01-28T07:12:39.971Z,90.59
2023-01-28T07:15:08.006Z,90.38
2023-01-28T07:17:40.996Z,90.26
2023-01-28T07:20:10.027Z,90.14
2023-01-28T07:22:38.908Z,90.48
2023-01-28T07:25:06.826Z,91.23
2023-01-28T07:27:33.951Z,91.65
2023-01-28T07:30:00.590Z,91.52
2023-01-28T07:32:28.406Z,91.69
2023-01-28T07:34:55.013Z,91.39
2023-01-28T07:37:23.064Z,90.85
2023-01-28T07:39:49.725Z,90.77
2023-01-28T07:42:17.347Z,90.43
2023-01-28T07:44:47.220Z,90.09
2023-01-28T07:47:13.959Z,90.04
2023-01-28T07:49:40.993Z,90.42
2023-01-28T07:52:08.017Z,89.83
2023-01-28T07:54:35.170Z,89.19
2023-01-28T07:57:02.477Z,88.93
2023-01-28T07:59:29.061Z,88.45
2023-01-28T08:01:55.791Z,87.69
2023-01-28T08:04:22.810Z,87.24
2023-01-28T08:06:51.689Z,86.93
2023-01-28T08:09:18.542Z,87.47
2023-01-28T08:11:46.387Z,88.49
2023-01-28T08:14:13.153Z,89.55
2023-01-28T08:16:39.801Z,88.55
2023-01-28T08:19:06.607Z,87.76
2023-01-28T08:21:33.389Z,87.71
2023-01-28T08:24:00.131Z,88.38
2023-01-28T08:26:27.011Z,89.13
2023-01-28T08:28:53.848Z,89.51
2023-01-28T08:31:20.693Z,89.39
2023-01-28T08:33:47.655Z,89.66
2023-01-28T08:36:15.173Z,89.15
2023-01-28T08:38:42.948Z,88.52
2023-01-28T08:41:09.555Z,88.47
2023-01-28T08:43:36.123Z,88.86
2023-01-28T08:46:06.336Z,89.03
2023-01-28T08:48:32.948Z,88.79
2023-01-28T08:51:00.452Z,88.69
2023-01-28T08:53:27.770Z,88.28
2023-01-28T08:55:54.899Z,88.14
2023-01-28T08:58:23.861Z,88.12
2023-01-28T09:00:51.088Z,88.31
2023-01-28T09:03:17.768Z,88.42
2023-01-28T09:05:49.027Z,88.28
2023-01-28T09:08:16.189Z,87.25
2023-01-28T09:10:42.903Z,87.45
2023-01-28T09:13:14.318Z,86.86
2023-01-28T10:26:20.565Z,84.61
2023-01-28T10:28:50.224Z,82.88
2023-01-28T10:31:20.464Z,82.76
2023-01-28T10:33:47.328Z,82.20
2023-01-28T10:36:14.659Z,81.79
2023-01-28T10:38:41.327Z,81.58
2023-01-28T10:41:09.476Z,81.37
2023-01-28T10:43:38.384Z,81.08
2023-01-28T10:46:16.128Z,80.88
2023-01-28T10:48:48.294Z,80.37
2023-01-28T10:51:15.078Z,79.97
2023-01-28T10:53:42.575Z,79.13
2023-01-28T10:56:11.206Z,78.66
2023-01-28T10:58:53.739Z,78.38
2023-01-28T11:01:20.472Z,77.71
2023-01-28T11:03:55.498Z,77.41
2023-01-28T11:06:27.999Z,77.03
2023-01-28T11:08:54.943Z,76.37
2023-01-28T11:11:25.351Z,75.97
2023-01-28T11:13:53.818Z,75.29
2023-01-28T11:16:20.602Z,74.25
2023-01-28T11:18:51.704Z,72.94
2023-01-28T11:21:24.988Z,72.47
2023-01-28T11:23:55.514Z,71.62
2023-01-28T11:26:32.294Z,69.95
2023-01-28T11:28:59.024Z,69.13
2023-01-28T11:31:26.432Z,68.56
2023-01-28T11:33:58.308Z,67.43
2023-01-28T11:36:30.132Z,65.87
2023-01-28T11:38:58.285Z,64.52
2023-01-28T11:41:29.637Z,63.04
2023-01-28T11:43:57.757Z,61.44
2023-01-28T11:46:38.363Z,60.88
2023-01-28T11:49:24.327Z,60.43
2023-01-28T11:52:18.871Z,59.68
2023-01-28T11:54:51.619Z,59.02
2023-01-28T11:57:35.174Z,58.74
2023-01-28T12:00:25.050Z,58.57
2023-01-28T12:03:11.211Z,58.26
2023-01-28T12:05:49.881Z,58.28
2023-01-28T12:08:19.416Z,58.57
2023-01-28T12:11:01.336Z,58.55
2023-01-28T12:14:19.312Z,59.06
2023-01-28T12:17:17.135Z,59.36
2023-01-28T12:20:31.018Z,59.78
2023-01-28T12:23:16.725Z,60.20
2023-01-28T12:26:02.216Z,60.24
2023-01-28T12:28:48.403Z,60.01
2023-01-28T12:31:48.121Z,60.01
2023-01-28T12:34:44.939Z,60.07
2023-01-28T12:37:33.627Z,60.20
2023-01-28T12:40:19.050Z,60.08
2023-01-28T12:42:53.704Z,60.48
2023-01-28T12:45:24.444Z,60.75
2023-01-28T12:47:54.816Z,61.14
2023-01-28T12:50:40.995Z,61.35
2023-01-28T12:53:48.492Z,61.23
2023-01-28T12:56:17.714Z,61.50
2023-01-28T12:59:01.914Z,61.76
2023-01-28T13:01:54.295Z,61.83
2023-01-28T13:04:59.747Z,62.47
2023-01-28T13:07:40.877Z,62.63
2023-01-28T13:10:32.172Z,63.08
2023-01-28T13:12:59.311Z,63.31
2023-01-28T13:15:26.595Z,63.47
2023-01-28T13:18:01.684Z,63.92
2023-01-28T13:20:48.924Z,64.23
2023-01-28T13:23:35.564Z,64.48
2023-01-28T13:26:09.869Z,64.71
2023-01-28T13:28:36.636Z,65.06
2023-01-28T13:31:13.742Z,65.41
2023-01-28T13:33:41.353Z,65.76
2023-01-28T13:36:29.726Z,65.83
2023-01-28T13:39:23.793Z,66.30
2023-01-28T13:41:52.445Z,66.71
2023-01-28T13:44:25.187Z,67.03
2023-01-28T13:46:57.526Z,67.10
2023-01-28T13:49:30.001Z,67.19
2023-01-28T13:52:04.389Z,67.64
2023-01-28T13:54:31.047Z,67.94
2023-01-28T13:57:00.803Z,68.53
2023-01-28T13:59:54.431Z,68.96
2023-01-28T14:02:21.022Z,69.43
2023-01-28T14:05:06.108Z,69.89
2023-01-28T14:07:53.412Z,70.58
2023-01-28T14:10:23.232Z,71.32
2023-01-28T14:13:17.866Z,71.58
2023-01-28T14:16:06.032Z,72.02
2023-01-28T14:18:42.401Z,72.36
2023-01-28T14:21:12.355Z,72.37
2023-01-28T14:23:45.102Z,72.50
2023-01-28T14:26:18.294Z,72.61
2023-01-28T14:29:04.324Z,73.10
2023-01-28T14:31:36.644Z,73.51
2023-01-28T14:34:25.352Z,74.06
2023-01-28T14:36:55.583Z,74.28
2023-01-28T14:39:26.373Z,74.74
2023-01-28T14:41:54.884Z,75.26
2023-01-28T14:44:28.039Z,75.79
2023-01-28T14:47:01.688Z,76.25
2023-01-28T14:49:42.978Z,76.39
2023-01-28T14:52:40.600Z,77.03
2023-01-28T14:55:25.891Z,77.02
2023-01-28T14:58:00.927Z,77.62
2023-01-28T15:00:29.331Z,78.37
2023-01-28T15:02:56.249Z,78.85
2023-01-28T15:05:25.929Z,78.95
2023-01-28T15:07:52.862Z,79.25
2023-01-28T15:10:35.207Z,79.26
2023-01-28T15:13:07.889Z,79.21
2023-01-28T15:15:36.242Z,79.44
2023-01-28T15:18:07.510Z,79.37
2023-01-28T15:20:37.009Z,79.58
2023-01-28T15:23:06.141Z,80.00
2023-01-28T15:25:33.275Z,80.06
2023-01-28T15:28:00.606Z,80.15
2023-01-28T15:30:29.327Z,80.41
2023-01-28T15:33:11.297Z,81.07
2023-01-28T15:35:37.931Z,81.50
2023-01-28T15:38:05.577Z,82.02
2023-01-28T15:40:40.896Z,82.13
2023-01-28T15:43:21.881Z,82.48
2023-01-28T15:45:49.137Z,82.23
2023-01-28T15:48:15.816Z,82.16
2023-01-28T15:50:45.834Z,82.39
2023-01-28T15:53:15.902Z,82.50
2023-01-28T15:55:43.927Z,82.71
2023-01-28T15:58:18.695Z,82.75
2023-01-28T16:00:46.310Z,83.05
2023-01-28T16:03:20.471Z,83.11
2023-01-28T16:06:17.468Z,83.61
2023-01-28T16:08:59.824Z,83.76
2023-01-28T16:11:35.017Z,83.81
2023-01-28T16:14:02.573Z,83.87
2023-01-28T16:16:35.354Z,83.89
2023-01-28T16:19:04.139Z,83.98
2023-01-28T16:21:34.134Z,84.04
2023-01-28T16:24:03.575Z,84.19
2023-01-28T16:26:33.656Z,84.22
2023-01-28T16:29:14.735Z,84.14
2023-01-28T16:31:41.569Z,83.97
2023-01-28T16:34:09.918Z,84.10
2023-01-28T16:36:36.784Z,84.32
2023-01-28T16:39:03.690Z,84.43
2023-01-28T16:41:39.862Z,84.59
2023-01-28T16:44:08.266Z,84.89
2023-01-28T16:46:34.919Z,84.76
2023-01-28T16:49:01.853Z,84.50
2023-01-28T16:51:28.987Z,84.75
2023-01-28T16:53:56.080Z,84.40
2023-01-28T16:56:44.009Z,84.28
2023-01-28T16:59:11.299Z,84.25
2023-01-28T17:01:38.022Z,84.51
2023-01-28T17:04:11.247Z,84.35
2023-01-28T17:06:43.813Z,84.03
2023-01-28T17:09:12.099Z,84.40
2023-01-28T17:11:41.674Z,84.53
2023-01-28T17:14:09.636Z,84.77
2023-01-28T17:16:36.979Z,85.30
2023-01-28T17:19:03.837Z,85.65
2023-01-28T17:21:30.843Z,85.63
2023-01-28T17:23:59.019Z,86.02
2023-01-28T17:26:28.407Z,86.03
2023-01-28T17:28:55.811Z,86.32
2023-01-28T17:31:22.681Z,86.55
2023-01-28T17:33:53.228Z,86.47
2023-01-28T17:36:21.555Z,86.63
2023-01-28T17:38:48.412Z,86.54
2023-01-28T17:41:16.702Z,86.45
2023-01-28T17:43:43.689Z,86.33
2023-01-28T17:46:14.386Z,86.31
2023-01-28T17:48:42.273Z,86.54
2023-01-28T17:51:09.225Z,86.38
2023-01-28T17:53:38.091Z,86.21
2023-01-28T17:56:05.296Z,86.05
2023-01-28T17:58:32.055Z,86.34
2023-01-28T18:00:59.756Z,86.03
2023-01-28T18:03:26.418Z,86.18
2023-01-28T18:05:58.185Z,86.00
2023-01-28T18:08:25.657Z,86.07
2023-01-28T18:10:55.123Z,86.31
2023-01-28T18:13:21.932Z,86.61
2023-01-28T18:22:12.720Z,87.10
2023-01-28T18:24:39.365Z,86.90
2023-01-28T18:27:06.066Z,87.30
2023-01-28T18:29:33.581Z,87.24
2023-01-28T18:32:00.348Z,87.09
2023-01-28T18:34:28.276Z,87.21
2023-01-28T18:36:56.631Z,87.03
2023-01-28T18:39:25.183Z,87.49
2023-01-28T18:41:53.648Z,87.71
2023-01-28T18:44:20.775Z,88.05
2023-01-28T18:46:47.516Z,88.41
2023-01-28T18:49:14.134Z,88.55
2023-01-28T18:51:40.784Z,88.70
2023-01-28T18:54:11.194Z,89.05
2023-01-28T18:56:39.550Z,89.25
2023-01-28T18:59:06.920Z,88.96
2023-01-28T19:01:33.970Z,89.47
2023-01-28T19:04:01.126Z,89.34
2023-01-28T19:06:28.596Z,89.73
2023-01-28T19:08:57.338Z,89.92
2023-01-28T19:11:25.843Z,89.75
2023-01-28T19:13:52.525Z,89.66
2023-01-28T19:16:19.546Z,89.85
2023-01-28T19:18:57.562Z,89.49
2023-01-28T19:21:25.046Z,89.64
2023-01-28T19:23:55.512Z,89.31
2023-01-28T19:26:23.518Z,89.17
2023-01-28T19:28:50.886Z,88.71
2023-01-28T19:31:20.020Z,88.43
2023-01-28T19:33:47.673Z,87.95
2023-01-28T19:36:14.861Z,87.55
2023-01-28T19:38:41.440Z,87.02
2023-01-28T19:41:08.478Z,87.08
2023-01-28T19:43:35.195Z,86.78
2023-01-28T19:46:03.829Z,86.38
2023-01-28T19:48:31.437Z,86.45
2023-01-28T19:50:58.703Z,85.84
2023-01-28T19:53:25.502Z,85.36
2023-01-28T19:55:52.395Z,85.15
2023-01-28T19:58:19.201Z,84.74
2023-01-28T20:00:46.055Z,84.37
2023-01-28T20:03:14.104Z,84.29
2023-01-28T20:05:41.046Z,84.12
2023-01-28T20:08:07.712Z,83.71
2023-01-28T20:10:35.135Z,83.86
2023-01-28T20:13:02.104Z,83.61
2023-01-28T20:15:28.888Z,83.23
2023-01-28T20:17:55.949Z,83.34
2023-01-28T20:20:22.598Z,83.01
2023-01-28T20:22:49.784Z,82.82
2023-01-28T20:25:16.951Z,82.82
2023-01-28T20:27:43.934Z,82.85
2023-01-28T20:30:11.448Z,83.04
2023-01-28T20:32:38.719Z,82.60
2023-01-28T20:35:07.436Z,82.46
2023-01-28T20:37:34.094Z,82.08
2023-01-28T20:40:01.046Z,81.53
2023-01-28T20:42:27.659Z,81.46
2023-01-28T20:44:54.274Z,81.54
2023-01-28T20:47:21.009Z,81.67
2023-01-28T20:49:47.623Z,81.55
2023-01-28T20:52:14.311Z,81.85
2023-01-28T20:54:44.712Z,82.05
2023-01-28T20:57:11.293Z,82.19
2023-01-28T20:59:38.001Z,82.78
2023-01-28T21:02:04.870Z,83.22
2023-01-28T21:04:33.170Z,84.03
2023-01-28T21:07:01.955Z,84.39
2023-01-28T21:09:28.973Z,84.56
2023-01-28T21:11:58.167Z,84.51
2023-01-28T21:14:25.263Z,84.66
2023-01-28T21:16:52.735Z,84.81
2023-01-28T21:19:19.948Z,85.33
2023-01-28T21:21:46.715Z,85.63
2023-01-28T21:24:16.187Z,86.12
2023-01-28T21:26:42.934Z,86.75
2023-01-28T21:29:09.971Z,86.69
2023-01-28T21:31:36.829Z,86.70
2023-01-28T21:34:03.729Z,87.27
2023-01-28T21:36:33.204Z,88.02
2023-01-28T21:39:00.304Z,88.02
2023-01-28T21:41:27.101Z,88.33
2023-01-28T21:43:54.241Z,88.70
2023-01-28T21:46:21.697Z,88.83
2023-01-28T21:48:58.608Z,89.11
2023-01-28T21:51:35.184Z,89.58
2023-01-28T21:54:06.478Z,89.78
2023-01-28T21:56:33.232Z,90.07
2023-01-28T21:59:19.475Z,90.26
2023-01-28T22:01:46.173Z,90.95
2023-01-28T22:04:14.484Z,91.28
2023-01-28T22:06:41.787Z,91.95
2023-01-28T22:09:12.937Z,92.09
2023-01-28T22:11:42.540Z,92.46
2023-01-28T22:14:09.615Z,92.46
2023-01-28T22:16:36.329Z,93.05
2023-01-28T22:19:03.503Z,93.46
2023-01-28T22:21:30.697Z,93.74
2023-01-28T22:23:57.355Z,94.22
2023-01-28T22:26:24.024Z,94.43
2023-01-28T22:28:50.921Z,94.47
2023-01-28T22:31:17.655Z,94.49
2023-01-28T22:33:45.163Z,94.70
2023-01-28T22:36:13.889Z,95.16
2023-01-28T22:38:41.947Z,95.49
2023-01-28T22:41:10.439Z,95.55
2023-01-28T22:43:39.902Z,95.93
2023-01-28T22:46:06.829Z,96.32
2023-01-28T22:48:35.909Z,96.40
2023-01-28T22:51:07.538Z,96.69
2023-01-28T22:53:34.260Z,96.89
2023-01-28T22:56:02.017Z,97.60
2023-01-28T22:58:31.486Z,97.62
2023-01-28T23:00:58.929Z,97.89
2023-01-28T23:03:26.026Z,98.65
2023-01-28T23:05:56.506Z,98.48
2023-01-28T23:08:23.113Z,98.63
2023-01-28T23:10:50.326Z,98.74
2023-01-28T23:13:18.377Z,98.59
2023-01-28T23:16:05.066Z,98.78
2023-01-28T23:18:41.208Z,99.39
2023-01-28T23:21:34.229Z,99.77
2023-01-28T23:24:20.223Z,100.00
2023-01-28T23:26:50.422Z,100.00
2023-01-28T23:29:24.459Z,100.00
2023-01-28T23:32:00.365Z,100.00
2023-01-28T23:34:29.943Z,100.00
2023-01-28T23:36:57.944Z,100.00
2023-01-28T23:39:24.645Z,100.00
2023-01-28T23:41:51.257Z,100.00
2023-01-28T23:44:25.401Z,100.00
2023-01-28T23:46:52.309Z,100.00
2023-01-28T23:49:19.068Z,100.00
2023-01-28T23:51:46.627Z,100.00
2023-01-28T23:54:13.429Z,100.00
2023-01-28T23:56:40.082Z,100.00
2023-01-28T23:59:06.717Z,100.00
